Time;durP1;ratioP1;P1;durP2;ratioP2;P2;SDS_P1;SDS_P2;PMS_P1;PMS_P2;Temp;Humidity;BMP_temperature;BMP_pressure;BME280_temperature;BME280_humidity;BME280_pressure;Samples;Min_cycle;Max_cycle;Signal;HPM_P1;HPM_P2
2022/02/08 00:00:13;;;;;;;6.87;1.63;;;1.70;99.90;;;;;;4991403;28;20550;-73
2022/02/08 00:02:43;;;;;;;5.43;1.30;;;1.70;99.90;;;;;;4990761;28;20399;-72
2022/02/08 00:05:11;;;;;;;7.67;0.90;;;1.80;99.90;;;;;;4991612;28;20409;-71
2022/02/08 00:07:38;;;;;;;8.47;1.43;;;1.80;99.90;;;;;;4991585;28;20415;-73
2022/02/08 00:10:04;;;;;;;6.63;1.03;;;1.80;99.90;;;;;;4991578;28;20393;-74
2022/02/08 00:12:30;;;;;;;11.13;2.23;;;1.90;99.90;;;;;;4991316;28;20784;-76
2022/02/08 00:14:56;;;;;;;5.00;1.77;;;1.90;99.90;;;;;;4991536;28;20475;-74
2022/02/08 00:17:21;;;;;;;1.60;1.03;;;1.90;99.90;;;;;;4991494;28;20183;-72
2022/02/08 00:19:47;;;;;;;5.20;1.00;;;2.00;99.90;;;;;;4991445;28;20215;-74
2022/02/08 00:22:13;;;;;;;2.60;1.00;;;2.00;99.90;;;;;;4991433;28;20218;-74
2022/02/08 00:24:38;;;;;;;7.17;1.10;;;2.10;99.90;;;;;;4991527;28;20563;-73
2022/02/08 00:27:05;;;;;;;5.90;1.00;;;2.20;99.90;;;;;;4991614;28;20188;-73
2022/02/08 00:29:31;;;;;;;3.07;0.70;;;2.30;99.90;;;;;;4993525;28;20177;-71
2022/02/08 00:31:56;;;;;;;3.40;0.97;;;2.40;99.90;;;;;;4994703;28;20458;-74
2022/02/08 00:34:22;;;;;;;4.30;1.50;;;2.50;99.90;;;;;;4994705;28;20177;-74
2022/02/08 00:36:48;;;;;;;6.33;0.93;;;2.50;99.90;;;;;;4994758;28;20181;-74
2022/02/08 00:39:13;;;;;;;4.13;1.20;;;2.60;99.90;;;;;;4994856;28;20319;-73
2022/02/08 00:41:39;;;;;;;5.73;1.13;;;2.70;99.90;;;;;;4994416;28;20207;-73
2022/02/08 00:49:06;;;;;;;3.30;1.00;;;2.90;99.90;;;;;;4994797;28;20415;-73
2022/02/08 00:51:40;;;;;;;5.33;1.43;;;3.00;99.90;;;;;;4994352;28;20779;-73
2022/02/08 00:54:06;;;;;;;4.07;1.03;;;3.00;99.90;;;;;;4994632;28;20386;-73
2022/02/08 00:56:32;;;;;;;7.47;1.33;;;3.00;99.90;;;;;;4994655;28;20391;-73
2022/02/08 00:58:58;;;;;;;1.93;1.20;;;3.00;99.90;;;;;;4994524;28;20753;-72
2022/02/08 05:34:35;;;;;;;4.93;1.00;;;3.40;99.90;;;;;;4975744;28;20501;-74
2022/02/08 05:42:32;;;;;;;9.63;1.30;;;3.50;99.90;;;;;;4992382;28;20469;-74
2022/02/08 05:45:02;;;;;;;8.17;1.80;;;3.50;99.90;;;;;;4992363;28;20470;-74
2022/02/08 05:47:28;;;;;;;4.70;1.50;;;3.50;99.90;;;;;;4991449;28;20395;-73
2022/02/08 05:50:10;;;;;;;2.63;1.17;;;3.50;99.90;;;;;;4992056;28;20421;-74
2022/02/08 05:52:51;;;;;;;1.60;0.90;;;3.50;99.90;;;;;;4991839;28;20188;-74
2022/02/08 05:55:17;;;;;;;10.77;1.27;;;3.50;99.90;;;;;;4991898;28;20453;-71
2022/02/08 05:57:43;;;;;;;7.30;1.40;;;3.60;99.90;;;;;;4991942;28;21142;-71
2022/02/08 06:00:11;;;;;;;6.60;1.03;;;3.60;99.90;;;;;;4991436;28;20482;-70
2022/02/08 06:02:37;;;;;;;4.10;1.13;;;3.70;99.90;;;;;;4991345;28;20413;-71
2022/02/08 06:05:05;;;;;;;9.33;1.90;;;3.70;99.90;;;;;;4991515;28;20486;-71
2022/02/08 06:07:31;;;;;;;3.33;1.27;;;3.70;99.90;;;;;;4991500;28;20462;-71
2022/02/08 06:09:57;;;;;;;10.67;1.77;;;3.70;99.90;;;;;;4991776;28;20487;-71
2022/02/08 06:12:24;;;;;;;2.57;1.27;;;3.70;99.90;;;;;;4992047;28;20493;-72
2022/02/08 06:14:58;;;;;;;6.93;1.60;;;3.70;99.90;;;;;;4991240;28;20218;-71
2022/02/08 06:17:25;;;;;;;6.43;1.17;;;3.70;99.90;;;;;;4991931;28;20401;-72
2022/02/08 06:19:52;;;;;;;8.17;1.90;;;3.70;99.90;;;;;;4991779;28;20397;-71
2022/02/08 06:22:18;;;;;;;6.83;1.83;;;3.80;99.90;;;;;;4990847;28;20471;-72
2022/02/08 06:24:43;;;;;;;13.60;2.60;;;3.80;99.90;;;;;;4990940;28;20397;-71
2022/02/08 06:27:09;;;;;;;4.40;1.40;;;3.80;99.90;;;;;;4990929;28;20185;-71
2022/02/08 06:29:35;;;;;;;6.73;1.90;;;3.80;99.90;;;;;;4991686;28;20175;-72
2022/02/08 06:32:01;;;;;;;2.57;0.90;;;3.80;99.90;;;;;;4990884;28;20859;-72
2022/02/08 06:34:30;;;;;;;8.90;1.90;;;3.80;99.90;;;;;;4991085;28;20438;-72
2022/02/08 06:37:02;;;;;;;11.10;1.53;;;3.80;99.90;;;;;;4990968;28;20191;-72
2022/02/08 06:39:33;;;;;;;5.40;1.30;;;3.90;99.90;;;;;;4991461;28;20398;-71
2022/02/08 06:41:59;;;;;;;7.23;1.30;;;3.80;99.90;;;;;;4991148;28;20442;-72
2022/02/08 06:44:24;;;;;;;9.63;1.53;;;3.90;99.90;;;;;;4990932;28;20770;-73
2022/02/08 06:46:50;;;;;;;8.27;1.30;;;3.90;99.90;;;;;;4991272;28;20176;-72
2022/02/08 06:49:16;;;;;;;7.17;1.63;;;3.90;99.90;;;;;;4991237;28;20282;-72
2022/02/08 06:51:42;;;;;;;10.13;1.90;;;3.90;99.90;;;;;;4990474;28;20283;-72
2022/02/08 06:54:07;;;;;;;6.60;2.27;;;3.90;99.90;;;;;;4990492;28;20882;-72
2022/02/08 06:56:33;;;;;;;10.63;1.77;;;3.90;99.90;;;;;;4991139;28;20183;-72
2022/02/08 06:59:06;;;;;;;8.67;1.80;;;3.90;99.90;;;;;;4991038;28;20243;-71
2022/02/08 07:01:33;;;;;;;3.90;1.77;;;4.00;99.90;;;;;;4990982;28;20203;-72
2022/02/08 07:04:00;;;;;;;15.67;1.97;;;4.00;99.90;;;;;;4990315;28;20883;-69
2022/02/08 07:06:25;;;;;;;3.00;1.30;;;4.10;99.90;;;;;;4990555;28;20413;-72
2022/02/08 07:08:51;;;;;;;13.40;1.57;;;4.20;99.90;;;;;;4991099;28;20424;-71
2022/02/08 07:11:17;;;;;;;10.67;1.80;;;4.20;99.90;;;;;;4990801;28;20567;-72
2022/02/08 07:13:45;;;;;;;2.77;1.17;;;4.30;99.90;;;;;;4990449;28;20191;-72
2022/02/08 07:16:11;;;;;;;9.37;3.50;;;4.30;99.90;;;;;;4990409;28;20499;-72
2022/02/08 07:18:38;;;;;;;4.03;1.50;;;4.40;99.90;;;;;;4991249;28;20461;-72
2022/02/08 07:21:04;;;;;;;6.00;1.80;;;4.50;99.90;;;;;;4990512;28;20578;-72
2022/02/08 07:23:29;;;;;;;8.37;2.33;;;4.50;99.90;;;;;;4989753;28;20421;-69
2022/02/08 07:25:55;;;;;;;8.83;1.37;;;4.50;99.90;;;;;;4990901;28;20465;-72
2022/02/08 07:28:21;;;;;;;6.90;1.90;;;4.50;99.90;;;;;;4991194;28;20662;-71
2022/02/08 07:30:47;;;;;;;7.97;1.57;;;4.60;99.90;;;;;;4990621;28;20233;-71
2022/02/08 07:33:12;;;;;;;10.07;1.80;;;4.60;99.90;;;;;;4990020;28;20996;-69
2022/02/08 07:35:49;;;;;;;5.10;1.10;;;4.70;99.90;;;;;;4990782;28;20224;-70
2022/02/08 07:38:22;;;;;;;7.90;1.20;;;4.70;99.90;;;;;;4991155;28;20214;-71
2022/02/08 07:43:17;;;;;;;4.47;1.63;;;4.80;99.90;;;;;;4993947;28;20472;-72
2022/02/08 07:45:42;;;;;;;5.20;1.30;;;4.90;99.90;;;;;;4994474;28;20424;-71
2022/02/08 07:48:08;;;;;;;3.17;1.30;;;4.90;99.90;;;;;;4994552;28;20909;-69
2022/02/08 07:50:38;;;;;;;6.13;1.53;;;5.00;99.90;;;;;;4994694;28;20178;-71
2022/02/08 07:53:13;;;;;;;12.63;1.70;;;5.10;99.90;;;;;;4993964;28;20399;-71
2022/02/08 07:55:40;;;;;;;4.43;1.83;;;5.10;99.90;;;;;;4994773;28;20481;-71
2022/02/08 07:58:05;;;;;;;4.17;1.80;;;5.20;99.90;;;;;;4992145;28;21171;-70
2022/02/08 08:00:31;;;;;;;7.40;1.50;;;5.30;99.90;;;;;;4993790;28;20576;-71
2022/02/08 08:02:57;;;;;;;9.20;1.67;;;5.40;99.90;;;;;;4993329;28;20702;-72
2022/02/08 08:05:23;;;;;;;2.77;1.10;;;5.50;99.90;;;;;;4994300;28;20552;-71
2022/02/08 08:07:48;;;;;;;5.73;1.90;;;5.50;99.90;;;;;;4986283;28;20191;-72
2022/02/08 08:10:18;;;;;;;7.60;1.50;;;5.60;99.90;;;;;;4973297;28;21053;-70
2022/02/08 08:12:51;;;;;;;4.87;1.20;;;5.70;99.90;;;;;;4971956;28;20687;-70
2022/02/08 08:20:20;;;;;;;3.07;1.37;;;5.90;99.90;;;;;;4973711;28;20485;-71
2022/02/08 08:22:46;;;;;;;7.70;1.90;;;5.90;99.90;;;;;;4973570;28;20932;-70
2022/02/08 08:25:11;;;;;;;14.60;2.03;;;6.00;99.90;;;;;;4974499;28;20210;-70
2022/02/08 08:27:37;;;;;;;7.10;1.77;;;6.10;99.90;;;;;;4974535;28;20553;-71
2022/02/08 08:30:04;;;;;;;9.00;1.63;;;6.10;99.90;;;;;;4974263;28;20254;-70
2022/02/08 08:32:29;;;;;;;8.00;1.50;;;6.10;99.90;;;;;;4973794;28;20744;-69
2022/02/08 08:34:55;;;;;;;3.20;1.00;;;6.20;99.90;;;;;;4973851;28;20486;-71
2022/02/08 08:37:20;;;;;;;8.83;1.77;;;6.10;99.90;;;;;;4974361;28;20275;-71
2022/02/08 08:39:47;;;;;;;6.70;1.60;;;6.20;99.90;;;;;;4974259;28;20649;-69
2022/02/08 08:52:40;;;;;;;3.67;1.20;;;6.00;99.90;;;;;;4973850;28;20442;-70
2022/02/08 08:55:06;;;;;;;5.10;1.07;;;6.00;99.90;;;;;;4972988;28;20512;-73
2022/02/08 08:57:31;;;;;;;3.03;1.20;;;6.00;99.90;;;;;;4974062;28;20460;-69
2022/02/08 08:59:57;;;;;;;9.63;1.27;;;6.50;99.90;;;;;;4973244;28;20394;-71
2022/02/08 09:02:23;;;;;;;9.83;1.93;;;7.20;99.90;;;;;;4973672;28;20579;-71
2022/02/08 09:04:51;;;;;;;5.57;1.93;;;7.90;99.90;;;;;;4973092;28;20181;-70
2022/02/08 09:07:16;;;;;;;2.57;1.17;;;8.30;99.90;;;;;;4973926;28;20260;-71
2022/02/08 09:09:45;;;;;;;5.20;1.40;;;8.20;99.90;;;;;;4973205;28;20535;-71
2022/02/08 09:12:20;;;;;;;7.40;2.53;;;8.30;99.90;;;;;;4973486;28;20582;-72
2022/02/08 09:15:04;;;;;;;10.60;1.17;;;8.30;99.90;;;;;;4973257;28;20467;-72
2022/02/08 09:30:30;;;;;;;3.27;1.37;;;9.90;99.90;;;;;;4973472;28;20173;-72
2022/02/08 09:32:56;;;;;;;7.23;1.30;;;10.10;99.90;;;;;;4972191;28;20513;-71
2022/02/08 09:35:21;;;;;;;4.27;2.00;;;10.10;99.90;;;;;;4973335;28;20461;-71
2022/02/08 09:37:47;;;;;;;8.30;1.43;;;10.10;99.90;;;;;;4972682;28;20174;-70
2022/02/08 09:40:21;;;;;;;4.70;1.20;;;10.20;99.90;;;;;;4972994;28;20252;-72
2022/02/08 09:42:47;;;;;;;6.67;1.47;;;10.30;99.90;;;;;;4972199;28;20469;-69
2022/02/08 09:45:19;;;;;;;6.27;1.30;;;10.10;99.90;;;;;;4973130;28;20419;-71
2022/02/08 09:47:56;;;;;;;3.17;1.10;;;10.10;99.90;;;;;;4972813;28;20783;-70
2022/02/08 09:50:26;;;;;;;5.10;2.03;;;10.50;99.90;;;;;;4973143;28;20434;-71
2022/02/08 09:52:58;;;;;;;5.23;0.90;;;10.90;99.90;;;;;;4971389;28;20422;-71
2022/02/08 09:55:25;;;;;;;4.27;1.50;;;11.20;99.90;;;;;;4973301;28;20401;-71
2022/02/08 09:57:51;;;;;;;8.40;1.10;;;11.40;99.90;;;;;;4973075;28;20414;-71
2022/02/08 10:00:19;;;;;;;7.17;1.17;;;11.40;99.90;;;;;;4972077;28;20792;-70
2022/02/08 10:02:45;;;;;;;12.30;2.30;;;11.40;99.90;;;;;;4971371;28;20447;-69
2022/02/08 10:05:11;;;;;;;4.23;1.00;;;11.40;99.90;;;;;;4972447;28;20453;-71
2022/02/08 10:07:37;;;;;;;8.83;1.40;;;11.60;99.90;;;;;;4972296;28;20198;-69
2022/02/08 10:10:08;;;;;;;3.43;1.70;;;11.90;99.90;;;;;;4971655;28;20416;-69
2022/02/08 10:13:00;;;;;;;3.93;1.50;;;11.70;99.90;;;;;;4972328;28;20974;-71
2022/02/08 10:24:00;;;;;;;2.07;1.47;;;11.30;99.90;;;;;;4972012;28;20417;-68
2022/02/08 10:26:38;;;;;;;5.90;1.60;;;11.50;99.90;;;;;;4971961;28;20404;-71
2022/02/08 10:40:19;;;;;;;2.93;1.20;;;13.30;99.90;;;;;;4972242;28;20430;-70
2022/02/08 10:42:52;;;;;;;5.90;1.50;;;13.10;99.90;;;;;;4971390;28;20506;-69
2022/02/08 10:45:21;;;;;;;12.70;1.27;;;12.90;99.90;;;;;;4971292;28;20414;-70
2022/02/08 10:47:56;;;;;;;4.70;1.20;;;12.70;99.90;;;;;;4971644;28;20415;-71
2022/02/08 10:50:22;;;;;;;4.93;1.40;;;12.40;99.90;;;;;;4970975;28;20422;-70
2022/02/08 10:52:48;;;;;;;6.00;1.50;;;12.00;99.90;;;;;;4971406;28;20427;-70
2022/02/08 11:00:26;;;;;;;4.57;0.93;;;12.20;99.90;;;;;;4971333;28;21299;-71
2022/02/08 11:02:54;;;;;;;4.97;1.33;;;12.30;99.90;;;;;;4969340;28;20443;-71
2022/02/08 11:05:36;;;;;;;5.07;1.30;;;12.50;99.90;;;;;;4971499;28;21137;-72
2022/02/08 11:14:00;;;;;;;5.63;1.30;;;13.40;99.90;;;;;;4957844;28;20430;-70
2022/02/08 11:16:32;;;;;;;9.20;1.93;;;13.00;99.90;;;;;;4971606;28;20459;-72
2022/02/08 11:19:12;;;;;;;5.17;1.13;;;12.90;99.90;;;;;;4971378;28;20438;-70
2022/02/08 11:24:42;;;;;;;3.70;0.90;;;12.00;99.90;;;;;;4970607;28;20513;-68
2022/02/08 11:27:16;;;;;;;6.27;1.10;;;11.50;99.90;;;;;;4971015;28;20414;-70
2022/02/08 11:29:58;;;;;;;3.90;1.30;;;11.60;99.90;;;;;;4971367;28;20413;-70
2022/02/08 11:48:48;;;;;;;4.57;1.10;;;11.30;99.90;;;;;;4970766;28;20406;-70
2022/02/08 11:54:05;;;;;;;2.47;0.63;;;11.50;99.90;;;;;;4970916;28;20414;-70
2022/02/08 11:59:33;;;;;;;1.57;0.70;;;11.50;99.90;;;;;;4947602;28;20455;-70
2022/02/08 12:02:37;;;;;;;1.77;0.60;;;11.50;99.90;;;;;;4969187;28;20465;-72
2022/02/08 12:07:49;;;;;;;3.13;0.70;;;11.50;99.90;;;;;;4971065;28;20418;-71
2022/02/08 12:13:14;;;;;;;3.63;0.80;;;11.50;99.90;;;;;;4970477;28;20853;-69
2022/02/08 12:35:17;;;;;;;3.13;0.80;;;11.70;99.90;;;;;;4973653;28;20843;-70
2022/02/08 12:54:20;;;;;;;2.53;0.60;;;11.00;99.90;;;;;;4973039;28;20489;-70
2022/02/08 12:57:05;;;;;;;2.80;0.70;;;11.00;99.90;;;;;;4974066;28;20780;-70
2022/02/08 13:02:27;;;;;;;1.50;0.80;;;10.80;99.90;;;;;;4972907;28;20468;-71
2022/02/08 13:05:55;;;;;;;2.57;0.70;;;10.80;99.90;;;;;;4973545;28;20430;-71
2022/02/08 14:03:23;;;;;;;1.57;0.80;;;10.40;99.90;;;;;;4953261;28;20826;-69
2022/02/08 14:11:26;;;;;;;5.00;0.73;;;10.30;99.90;;;;;;4972108;28;20418;-70
2022/02/08 14:21:36;;;;;;;1.90;0.77;;;10.00;99.90;;;;;;4971931;28;20466;-70
2022/02/08 14:24:17;;;;;;;3.03;0.80;;;10.00;99.90;;;;;;4971526;28;20420;-71
2022/02/08 14:29:44;;;;;;;6.43;0.70;;;10.00;99.90;;;;;;4972244;28;20417;-69
2022/02/08 14:35:11;;;;;;;6.03;0.97;;;9.90;99.90;;;;;;4971535;28;20426;-70
2022/02/08 14:48:57;;;;;;;1.17;0.70;;;9.90;99.90;;;;;;4971884;28;20512;-69
2022/02/08 14:49:10;;;;;;;2.10;0.77;;;9.90;99.90;;;;;;4971012;28;20411;-70
2022/02/08 15:05:44;;;;;;;0.70;0.70;;;9.70;99.90;;;;;;4971879;28;20918;-70
2022/02/08 15:08:20;;;;;;;2.37;1.00;;;9.70;99.90;;;;;;4971695;28;20418;-70
2022/02/08 15:10:52;;;;;;;13.53;0.90;;;9.70;99.90;;;;;;4970946;28;20524;-71
2022/02/08 15:13:21;;;;;;;4.33;1.00;;;9.60;99.90;;;;;;4970847;28;20506;-69
2022/02/08 15:18:30;;;;;;;2.73;1.70;;;9.70;99.90;;;;;;4971200;28;20416;-70
2022/02/08 15:20:56;;;;;;;4.10;1.60;;;9.60;99.90;;;;;;4971000;28;20441;-70
2022/02/08 15:23:22;;;;;;;1.43;1.10;;;9.70;99.90;;;;;;4970643;28;20448;-69
2022/02/08 15:25:54;;;;;;;1.73;0.80;;;9.70;99.90;;;;;;4971403;28;20260;-71
2022/02/08 15:28:22;;;;;;;1.77;0.80;;;9.70;99.90;;;;;;4970830;28;20420;-71
2022/02/08 15:30:47;;;;;;;1.77;0.60;;;9.70;99.90;;;;;;4970799;28;20412;-70
2022/02/08 15:33:13;;;;;;;1.03;0.97;;;9.70;99.90;;;;;;4970714;28;20895;-71
2022/02/08 15:35:39;;;;;;;3.30;1.20;;;9.60;99.90;;;;;;4971150;28;20193;-70
2022/02/08 15:38:05;;;;;;;2.87;0.83;;;9.50;99.90;;;;;;4971095;28;20177;-70
2022/02/08 15:40:32;;;;;;;2.80;0.70;;;9.50;99.90;;;;;;4970944;28;20181;-69
2022/02/08 15:42:58;;;;;;;2.93;1.00;;;9.40;99.90;;;;;;4970420;28;20951;-71
2022/02/08 15:45:34;;;;;;;1.80;0.83;;;9.30;99.90;;;;;;4971499;28;20411;-70
2022/02/08 15:48:00;;;;;;;4.73;0.70;;;9.30;99.90;;;;;;4971303;28;20539;-70
2022/02/08 15:50:39;;;;;;;3.73;1.17;;;9.20;99.90;;;;;;4970622;28;20479;-69
2022/02/08 15:56:07;;;;;;;7.40;1.43;;;9.00;99.90;;;;;;4970777;28;20461;-70
2022/02/08 16:09:09;;;;;;;3.70;1.37;;;8.70;99.90;;;;;;4974280;28;20477;-71
2022/02/08 16:11:56;;;;;;;3.03;0.93;;;8.70;99.90;;;;;;4973862;28;20521;-70
2022/02/08 16:17:01;;;;;;;1.00;0.70;;;8.70;99.90;;;;;;4974049;28;21049;-71
2022/02/08 16:19:48;;;;;;;1.43;0.63;;;8.70;99.90;;;;;;4974190;28;20218;-71
2022/02/08 16:59:21;;;;;;;2.13;1.00;;;8.60;99.90;;;;;;4970824;28;21235;-72
2022/02/08 17:01:47;;;;;;;2.00;1.37;;;8.60;99.90;;;;;;4972399;28;20211;-73
2022/02/08 17:04:13;;;;;;;2.87;1.10;;;8.50;99.90;;;;;;4973017;28;20808;-73
2022/02/08 17:06:39;;;;;;;1.63;0.90;;;8.50;99.90;;;;;;4973745;28;20182;-74
2022/02/08 17:09:08;;;;;;;3.60;1.03;;;8.50;99.90;;;;;;4973332;28;20205;-72
2022/02/08 17:11:59;;;;;;;6.43;1.07;;;8.50;99.90;;;;;;4971958;28;20451;-73
2022/02/08 17:46:40;;;;;;;2.50;1.50;;;8.50;99.90;;;;;;4969990;28;20466;-72
2022/02/08 17:49:06;;;;;;;3.77;2.20;;;8.50;99.90;;;;;;4972843;28;20391;-74
2022/02/08 17:51:32;;;;;;;5.43;1.90;;;8.50;99.90;;;;;;4972585;28;20442;-73
2022/02/08 17:53:57;;;;;;;4.60;2.10;;;8.50;99.90;;;;;;4971792;28;20190;-72
2022/02/08 17:56:23;;;;;;;4.77;1.93;;;8.40;99.90;;;;;;4972853;28;20667;-72
2022/02/08 17:58:49;;;;;;;2.73;1.60;;;8.40;99.90;;;;;;4973042;28;20189;-74
2022/02/08 18:01:15;;;;;;;3.20;2.60;;;8.40;99.90;;;;;;4972840;28;20704;-74
2022/02/08 18:03:40;;;;;;;6.00;2.30;;;8.50;99.90;;;;;;4972190;28;20427;-72
2022/02/08 18:06:06;;;;;;;9.70;2.47;;;8.40;99.90;;;;;;4973200;28;20925;-70
2022/02/08 18:08:33;;;;;;;2.03;1.83;;;8.40;99.90;;;;;;4958070;28;20222;-72
2022/02/08 18:10:59;;;;;;;4.10;2.53;;;8.40;99.90;;;;;;4972355;28;20213;-72
2022/02/08 18:13:28;;;;;;;4.40;2.70;;;8.40;99.90;;;;;;4971785;28;20458;-72
2022/02/08 18:15:54;;;;;;;5.47;1.93;;;8.40;99.90;;;;;;4972558;28;20229;-72
2022/02/08 18:18:26;;;;;;;7.00;2.63;;;8.40;99.90;;;;;;4971891;28;20422;-75
2022/02/08 18:20:58;;;;;;;5.80;2.30;;;8.30;99.90;;;;;;4972164;28;20232;-70
2022/02/08 18:50:30;;;;;;;4.90;2.67;;;8.30;99.90;;;;;;4935293;28;20571;-73
2022/02/08 18:56:22;;;;;;;8.43;6.03;;;8.30;99.90;;;;;;4952141;29;20873;-73
2022/02/08 19:09:26;;;;;;;7.60;4.50;;;8.20;99.90;;;;;;4971299;28;20200;-73
2022/02/08 19:19:40;;;;;;;7.50;3.50;;;8.20;99.90;;;;;;4971147;28;20561;-73
2022/02/08 19:22:06;;;;;;;6.23;2.30;;;8.30;99.90;;;;;;4966081;28;20230;-72
2022/02/08 19:24:32;;;;;;;3.83;2.07;;;8.30;99.90;;;;;;4950727;29;20464;-71
2022/02/08 19:27:00;;;;;;;9.77;2.83;;;8.30;99.90;;;;;;4951840;28;20452;-73
2022/02/08 19:29:27;;;;;;;4.77;1.90;;;8.20;99.90;;;;;;4967065;28;20276;-72
2022/02/08 19:31:53;;;;;;;3.33;2.63;;;8.20;99.90;;;;;;4989189;28;20452;-70
2022/02/08 19:34:19;;;;;;;2.93;1.50;;;8.20;99.90;;;;;;4971572;28;20949;-72
2022/02/08 19:36:46;;;;;;;4.90;1.93;;;8.20;99.90;;;;;;4972064;28;20465;-73
2022/02/08 19:39:12;;;;;;;6.13;2.20;;;8.10;99.90;;;;;;4974812;28;20883;-72
2022/02/08 19:41:38;;;;;;;6.73;1.83;;;8.10;99.90;;;;;;4974141;28;20468;-73
2022/02/08 19:44:07;;;;;;;11.87;4.60;;;8.10;99.90;;;;;;4974506;28;20880;-72
2022/02/08 19:46:33;;;;;;;9.03;3.20;;;8.10;99.90;;;;;;4974870;28;20470;-72
2022/02/08 19:48:59;;;;;;;6.30;2.87;;;8.00;99.90;;;;;;4975031;28;21165;-73
2022/02/08 19:51:24;;;;;;;10.60;2.53;;;8.00;99.90;;;;;;4974915;28;20485;-72
2022/02/08 19:53:52;;;;;;;6.10;2.57;;;8.00;99.90;;;;;;4972974;28;20701;-72
2022/02/08 19:58:51;;;;;;;6.83;3.80;;;8.00;99.90;;;;;;4975002;28;20516;-75
2022/02/08 20:01:24;;;;;;;10.90;5.57;;;8.00;99.90;;;;;;4973882;28;20220;-73
2022/02/08 20:03:58;;;;;;;10.93;7.27;;;8.00;99.90;;;;;;4974289;28;20474;-73
2022/02/08 20:06:25;;;;;;;10.40;4.97;;;7.90;99.90;;;;;;4974651;28;20434;-71
2022/02/08 20:08:50;;;;;;;14.73;7.03;;;7.90;99.90;;;;;;4974455;28;20457;-72
2022/02/08 20:11:16;;;;;;;11.70;7.13;;;7.90;99.90;;;;;;4974328;28;20439;-72
2022/02/08 20:13:50;;;;;;;26.43;13.40;;;7.90;99.90;;;;;;4973668;28;20288;-72
2022/02/08 20:16:17;;;;;;;15.30;8.87;;;7.90;99.90;;;;;;4974850;28;20217;-71
2022/02/08 20:18:48;;;;;;;12.60;5.40;;;7.80;99.90;;;;;;4975338;28;20851;-74
2022/02/08 20:21:14;;;;;;;17.47;5.57;;;7.80;99.90;;;;;;4973986;28;20502;-73
2022/02/08 20:23:39;;;;;;;10.70;2.97;;;7.80;99.90;;;;;;4956371;28;21401;-73
2022/02/08 20:26:06;;;;;;;14.13;4.77;;;7.80;99.90;;;;;;4955370;29;20651;-74
2022/02/08 20:28:53;;;;;;;9.50;3.60;;;7.90;99.90;;;;;;4955065;28;20638;-71
2022/02/08 20:31:19;;;;;;;6.73;4.10;;;7.90;99.90;;;;;;4954755;28;20432;-73
2022/02/08 20:33:46;;;;;;;11.23;4.63;;;7.90;99.90;;;;;;4953801;28;21034;-73
2022/02/08 20:36:13;;;;;;;8.97;3.90;;;7.80;99.90;;;;;;4955152;29;20452;-73
2022/02/08 20:38:38;;;;;;;9.97;3.70;;;7.80;99.90;;;;;;4954993;28;20486;-73
2022/02/08 20:41:04;;;;;;;13.50;4.40;;;7.80;99.90;;;;;;4954367;29;20521;-72
2022/02/08 20:43:36;;;;;;;9.50;4.37;;;7.80;99.90;;;;;;4954231;28;20217;-72
2022/02/08 20:46:04;;;;;;;17.27;7.03;;;7.80;99.90;;;;;;4954326;28;20210;-72
2022/02/08 20:48:31;;;;;;;15.07;5.20;;;7.80;99.90;;;;;;4952815;29;20460;-72
2022/02/08 20:51:00;;;;;;;9.40;4.17;;;7.80;99.90;;;;;;4953625;29;20440;-71
2022/02/08 20:53:40;;;;;;;8.27;4.47;;;7.80;99.90;;;;;;4953422;28;20932;-72
2022/02/08 20:56:33;;;;;;;12.77;4.80;;;7.80;99.90;;;;;;4954226;28;20422;-73
2022/02/08 21:01:24;;;;;;;9.53;4.50;;;7.80;99.90;;;;;;4954118;28;20515;-71
2022/02/08 21:04:01;;;;;;;9.80;3.60;;;7.80;99.90;;;;;;4953601;28;20492;-72
2022/02/08 21:06:28;;;;;;;12.43;3.73;;;7.70;99.90;;;;;;4953684;28;20610;-72
2022/02/08 21:08:55;;;;;;;14.90;4.17;;;7.70;99.90;;;;;;4952423;29;20901;-72
2022/02/08 21:11:27;;;;;;;5.53;4.70;;;7.60;99.90;;;;;;4954042;29;20447;-73
2022/02/08 21:14:04;;;;;;;9.27;4.20;;;7.60;99.90;;;;;;4951493;29;20466;-72
2022/02/08 21:16:34;;;;;;;5.47;4.90;;;7.50;99.90;;;;;;4954300;28;20455;-74
2022/02/08 21:19:00;;;;;;;6.87;4.00;;;7.50;99.90;;;;;;4953925;28;20449;-71
2022/02/08 21:21:26;;;;;;;6.00;4.53;;;7.50;99.90;;;;;;4953194;29;20550;-72
2022/02/08 21:23:53;;;;;;;9.80;4.37;;;7.50;99.90;;;;;;4953107;28;20642;-73
2022/02/08 21:26:25;;;;;;;7.03;5.47;;;7.50;99.90;;;;;;4953814;28;20656;-73
2022/02/08 21:31:52;;;;;;;8.90;4.10;;;7.50;99.90;;;;;;4953469;29;20824;-72
2022/02/08 21:48:03;;;;;;;9.87;3.90;;;7.40;99.90;;;;;;4972167;28;20835;-73
2022/02/08 21:53:03;;;;;;;11.23;4.33;;;7.40;99.90;;;;;;4967593;28;20441;-73
2022/02/08 21:55:30;;;;;;;9.40;5.07;;;7.40;99.90;;;;;;4972949;28;20425;-72
2022/02/08 21:58:00;;;;;;;15.57;4.93;;;7.40;99.90;;;;;;4971305;28;20541;-72
2022/02/08 22:00:27;;;;;;;9.63;4.57;;;7.40;99.90;;;;;;4972401;28;20440;-72
2022/02/08 22:02:53;;;;;;;6.60;4.13;;;7.40;99.90;;;;;;4971377;28;20494;-72
2022/02/08 22:05:20;;;;;;;5.80;4.00;;;7.40;99.90;;;;;;4972212;28;20445;-72
2022/02/08 22:08:02;;;;;;;6.63;4.00;;;7.40;99.90;;;;;;4972299;28;20455;-72
2022/02/08 22:23:55;;;;;;;15.80;4.67;;;7.40;99.90;;;;;;4971017;28;20859;-74
2022/02/08 22:26:50;;;;;;;9.93;4.13;;;7.40;99.90;;;;;;4972243;28;20826;-72
2022/02/08 22:29:27;;;;;;;8.13;4.53;;;7.40;99.90;;;;;;4971737;28;20890;-72
2022/02/08 22:32:00;;;;;;;9.20;5.30;;;7.40;99.90;;;;;;4971755;28;20486;-73
2022/02/08 22:34:32;;;;;;;13.63;5.47;;;7.40;99.90;;;;;;4970956;28;20452;-72
2022/02/08 22:39:35;;;;;;;10.20;4.57;;;7.40;99.90;;;;;;4971083;28;20479;-72
2022/02/08 22:42:09;;;;;;;12.37;5.23;;;7.40;99.90;;;;;;4971622;28;20221;-74
2022/02/08 22:44:45;;;;;;;9.87;4.90;;;7.30;99.90;;;;;;4971304;28;20496;-71
2022/02/08 22:47:11;;;;;;;8.43;4.13;;;7.30;99.90;;;;;;4971067;28;20441;-72
2022/02/08 22:49:37;;;;;;;11.23;4.80;;;7.30;99.90;;;;;;4971341;28;20977;-74
2022/02/08 22:52:05;;;;;;;10.70;4.10;;;7.40;99.90;;;;;;4967160;28;20218;-72
2022/02/08 22:54:31;;;;;;;13.90;4.73;;;7.30;99.90;;;;;;4951793;28;20222;-72
2022/02/08 22:56:57;;;;;;;14.40;4.47;;;7.30;99.90;;;;;;4952234;29;20474;-73
2022/02/08 22:59:23;;;;;;;5.73;3.83;;;7.30;99.90;;;;;;4951570;28;20265;-72
2022/02/08 23:01:50;;;;;;;8.40;4.27;;;7.20;99.90;;;;;;4951729;29;20222;-72
2022/02/08 23:04:18;;;;;;;11.50;4.00;;;7.20;99.90;;;;;;4950225;28;20246;-73
2022/02/08 23:06:48;;;;;;;13.03;4.80;;;7.20;99.90;;;;;;4965238;28;20443;-73
2022/02/08 23:09:19;;;;;;;6.30;3.40;;;7.30;99.90;;;;;;4970793;28;20508;-73
2022/02/08 23:14:31;;;;;;;8.50;3.97;;;7.20;99.90;;;;;;4970614;28;20409;-74
2022/02/08 23:38:36;;;;;;;7.50;4.10;;;7.10;99.90;;;;;;4970919;28;20809;-75
2022/02/08 23:41:02;;;;;;;7.00;3.10;;;7.00;99.90;;;;;;4971810;28;20401;-73
2022/02/08 23:43:27;;;;;;;7.67;4.17;;;7.10;99.90;;;;;;4972232;28;20221;-74
2022/02/08 23:45:53;;;;;;;7.27;3.80;;;7.10;99.90;;;;;;4972409;28;20707;-72
2022/02/08 23:48:29;;;;;;;10.20;4.30;;;7.10;99.90;;;;;;4972318;28;20289;-73
2022/02/08 23:50:58;;;;;;;7.30;4.40;;;7.10;99.90;;;;;;4972261;28;20178;-74
2022/02/08 23:53:33;;;;;;;8.70;3.87;;;7.10;99.90;;;;;;4971933;28;20964;-74
2022/02/08 23:56:09;;;;;;;12.90;3.70;;;7.10;99.90;;;;;;4971776;28;20779;-75
2022/02/08 23:58:39;;;;;;;5.40;3.93;;;7.10;99.90;;;;;;4971838;28;20435;-74
